This is the latest recevied weather packets stored in our database for station/object K1ADK-1. If no packets are shown the sender has not sent any weather packets the latest 10 day(s).
| Time | Temp. | Humidity | Pressure | Rain* | Wind** | Luminosity | Snow |
|---|---|---|---|---|---|---|---|
| 1777603516 | 8.89° C | 88% | 1009.2 hPa | 0 mm | - | 0 W/m² | - |
| 1777602936 | 9.44° C | 88% | 1009.1 hPa | 0 mm | - | 0 W/m² | - |
| 1777601116 | 10° C | 86% | 1009 hPa | 0 mm | - | 0 W/m² | - |
| 1777596916 | 11.11° C | 85% | 1008.2 hPa | 0 mm | - | 0 W/m² | - |
| 1777592716 | 12.78° C | 85% | 1007.7 hPa | 0 mm | - | 8 W/m² | - |
| 1777587316 | 13.33° C | 83% | 1007.2 hPa | 0.25 mm | - | 56 W/m² | - |
| 1777583116 | 14.44° C | 74% | 1006.6 hPa | 0 mm | - | 135 W/m² | - |
| 1777575316 | 12.78° C | 81% | 1006.3 hPa | 0 mm | - | 360 W/m² | - |
| 1777573516 | 12.22° C | 83% | 1006.5 hPa | 0 mm | - | 153 W/m² | - |
| 1777570516 | 11.67° C | 84% | 1006.5 hPa | 0 mm | - | 266 W/m² | - |
| 1777566916 | 11.11° C | 85% | 1006.5 hPa | 0 mm | - | 193 W/m² | - |
| 1777565715 | 11.11° C | 86% | 1006.8 hPa | 0 mm | - | 212 W/m² | - |
| 1777563915 | 10.56° C | 90% | 1007.3 hPa | 0 mm | - | 427 W/m² | - |
| 1777563315 | 10.56° C | 90% | 1007.6 hPa | 0 mm | - | 171 W/m² | - |
| 1777560315 | 10° C | 92% | 1007.4 hPa | 0 mm | - | 121 W/m² | - |
| 1777557915 | 9.44° C | 92% | 1007.3 hPa | 0 mm | - | 84 W/m² | - |
| 1777553115 | 9.44° C | 93% | 1007.4 hPa | 0 mm | - | 88 W/m² | - |
| 1777548317 | 8.89° C | 93% | 1007.8 hPa | 0.25 mm | - | 33 W/m² | - |
| 1777547717 | 8.89° C | 93% | 1008 hPa | 0.51 mm | - | 28 W/m² | - |
| 1777546517 | 8.89° C | 93% | 1007.9 hPa | 0.51 mm | - | 17 W/m² | - |
| 1777544717 | 8.89° C | 93% | 1007.7 hPa | 0.25 mm | - | 5 W/m² | - |
| 1777538737 | 8.89° C | 92% | 1007.6 hPa | 0.25 mm | - | 0 W/m² | - |
| 1777534517 | 8.33° C | 92% | 1008.2 hPa | 0 mm | - | 0 W/m² | - |
| 1777533937 | 8.33° C | 92% | 1007.9 hPa | 0.25 mm | - | 0 W/m² | - |
| 1777526717 | 8.89° C | 91% | 1009.9 hPa | 0.76 mm | - | 0 W/m² | - |
* Rain latest hour (hover to see other rain measurements)
** Current wind speed in m/s (hover to see current wind gust speed)